Time;durP1;ratioP1;P1;durP2;ratioP2;P2;SDS_P1;SDS_P2;PMS_P1;PMS_P2;Temp;Humidity;BMP_temperature;BMP_pressure;BME280_temperature;BME280_humidity;BME280_pressure;Samples;Min_cycle;Max_cycle;Signal;HPM_P1;HPM_P2
2021/03/08 00:00:16;;;;;;;43.38;27.05;;;;;;;-1.39;58.58;94212.39;1733719;82;21331;-61
2021/03/08 00:02:44;;;;;;;53.20;29.98;;;;;;;-1.33;58.50;94220.32;1771169;80;21087;-60
2021/03/08 00:05:14;;;;;;;76.28;41.20;;;;;;;-1.28;58.10;94209.14;1756743;80;21155;-61
2021/03/08 00:07:43;;;;;;;113.42;55.08;;;;;;;-1.24;58.03;94212.60;1767467;80;21567;-60
2021/03/08 00:10:15;;;;;;;119.00;68.12;;;;;;;-1.22;57.96;94212.42;1703183;82;21125;-60
2021/03/08 00:12:44;;;;;;;94.83;52.33;;;;;;;-1.23;57.77;94202.00;1712410;83;21384;-61
2021/03/08 00:15:14;;;;;;;75.85;44.35;;;;;;;-1.22;57.76;94210.28;1702006;83;21160;-62
2021/03/08 00:17:42;;;;;;;57.38;30.35;;;;;;;-1.25;58.05;94211.06;1751916;80;21214;-61
2021/03/08 00:20:16;;;;;;;47.13;25.62;;;;;;;-1.29;57.89;94201.61;1763492;80;21571;-62
2021/03/08 00:22:44;;;;;;;57.00;32.48;;;;;;;-1.34;57.60;94203.95;1762714;81;21132;-62
2021/03/08 00:25:17;;;;;;;82.02;46.70;;;;;;;-1.46;57.80;94205.66;1761756;80;21159;-62
2021/03/08 00:27:45;;;;;;;77.35;42.60;;;;;;;-1.58;58.30;94209.50;1765635;80;21483;-62
2021/03/08 00:30:15;;;;;;;62.80;34.18;;;;;;;-1.72;58.75;94204.67;1763878;80;21574;-61
2021/03/08 00:32:43;;;;;;;67.25;37.03;;;;;;;-1.84;59.16;94198.29;1761863;80;21107;-61
2021/03/08 00:35:12;;;;;;;63.48;35.68;;;;;;;-1.93;59.42;94189.03;1766445;80;21571;-61
2021/03/08 00:37:41;;;;;;;71.17;35.08;;;;;;;-2.01;59.45;94189.58;1750123;80;21224;-61
2021/03/08 00:40:14;;;;;;;61.95;31.95;;;;;;;-2.01;59.75;94188.23;1772993;80;21519;-62
2021/03/08 00:42:43;;;;;;;44.42;27.93;;;;;;;-1.98;59.49;94193.45;1763352;80;21563;-61
2021/03/08 00:45:14;;;;;;;45.35;28.40;;;;;;;-2.03;59.50;94186.50;1760274;80;21116;-60
2021/03/08 00:47:43;;;;;;;55.03;30.55;;;;;;;-2.08;59.64;94190.92;1727039;82;21115;-59
2021/03/08 00:50:18;;;;;;;57.38;31.35;;;;;;;-2.04;59.81;94183.61;1730076;82;21436;-61
2021/03/08 00:52:46;;;;;;;136.82;59.73;;;;;;;-1.96;59.79;94187.86;1752439;80;21104;-61
2021/03/08 00:55:15;;;;;;;129.30;60.28;;;;;;;-1.88;60.26;94182.69;1747117;80;21104;-61
2021/03/08 00:57:43;;;;;;;108.22;50.75;;;;;;;-1.84;60.74;94178.64;1732018;82;21167;-61
2021/03/08 01:00:15;;;;;;;105.12;52.60;;;;;;;-1.77;60.70;94175.38;1729886;82;21188;-61
2021/03/08 01:02:46;;;;;;;89.35;44.85;;;;;;;-1.77;60.75;94169.42;1779204;80;21198;-62
2021/03/08 01:05:16;;;;;;;81.75;40.12;;;;;;;-1.87;60.98;94170.76;1727024;82;21573;-62
2021/03/08 01:07:45;;;;;;;77.58;38.90;;;;;;;-1.97;60.74;94163.41;1734475;82;21132;-61
2021/03/08 01:10:19;;;;;;;68.90;35.88;;;;;;;-2.12;60.62;94156.44;1763503;80;21056;-61
2021/03/08 01:12:48;;;;;;;69.03;35.55;;;;;;;-2.22;60.94;94156.41;1728260;82;21516;-61
2021/03/08 01:15:18;;;;;;;71.92;38.13;;;;;;;-2.30;60.86;94160.25;1704401;83;21677;-61
2021/03/08 01:17:46;;;;;;;71.25;37.80;;;;;;;-2.37;61.29;94161.00;1758432;80;21706;-62
2021/03/08 01:20:18;;;;;;;80.72;40.95;;;;;;;-2.38;61.36;94154.07;1773013;80;21511;-62
2021/03/08 01:22:46;;;;;;;74.55;40.28;;;;;;;-2.34;61.46;94152.75;1732135;81;21143;-62
2021/03/08 01:25:18;;;;;;;75.55;42.10;;;;;;;-2.27;61.24;94156.80;1757946;80;21045;-60
2021/03/08 01:27:46;;;;;;;75.40;38.20;;;;;;;-2.21;60.94;94155.27;1755927;80;22408;-61
2021/03/08 01:30:19;;;;;;;70.72;37.93;;;;;;;-2.17;61.03;94151.44;1763024;80;21155;-60
2021/03/08 01:32:47;;;;;;;82.03;41.23;;;;;;;-2.09;60.95;94146.27;1744341;80;21108;-61
2021/03/08 01:35:16;;;;;;;105.10;52.78;;;;;;;-2.13;60.83;94146.82;1759640;80;21213;-60
2021/03/08 01:37:44;;;;;;;104.45;53.33;;;;;;;-2.19;61.16;94141.63;1755607;80;21103;-61
2021/03/08 01:40:15;;;;;;;78.50;40.28;;;;;;;-2.22;61.70;94149.69;1753537;80;22402;-60
2021/03/08 01:42:43;;;;;;;73.52;38.20;;;;;;;-2.33;61.47;94137.53;1751134;80;21135;-62
2021/03/08 01:45:15;;;;;;;64.37;35.52;;;;;;;-2.49;61.60;94124.98;1752467;80;21110;-61
2021/03/08 01:47:44;;;;;;;62.20;34.63;;;;;;;-2.52;61.47;94119.61;1753933;80;21282;-61
2021/03/08 01:50:21;;;;;;;46.10;26.70;;;;;;;-2.50;61.44;94124.78;1764633;80;21580;-61
2021/03/08 01:52:51;;;;;;;33.75;20.50;;;;;;;-2.40;61.26;94117.89;1754559;81;22634;-62
2021/03/08 01:55:19;;;;;;;38.33;22.62;;;;;;;-2.31;60.89;94119.08;1755528;80;21533;-60
2021/03/08 01:57:48;;;;;;;87.55;47.15;;;;;;;-2.28;60.68;94119.69;1743310;82;21056;-61
2021/03/08 02:00:19;;;;;;;108.52;50.90;;;;;;;-2.25;61.02;94116.78;1733393;82;21083;-61
2021/03/08 02:02:47;;;;;;;86.30;46.77;;;;;;;-2.36;61.42;94114.06;1771709;80;21463;-60
2021/03/08 02:05:17;;;;;;;122.33;51.65;;;;;;;-2.57;61.88;94113.22;1754366;80;21505;-60
2021/03/08 02:07:45;;;;;;;117.65;50.45;;;;;;;-2.81;62.51;94113.91;1777821;80;21496;-60
2021/03/08 02:10:15;;;;;;;112.50;48.58;;;;;;;-2.97;63.07;94108.84;1776972;80;21131;-60
2021/03/08 02:12:58;;;;;;;101.30;46.58;;;;;;;-3.03;63.48;94110.92;1769591;80;21623;-63
2021/03/08 02:15:43;;;;;;;126.78;58.05;;;;;;;-3.10;63.74;94104.15;1758340;80;21073;-60
2021/03/08 02:18:41;;;;;;;109.90;51.77;;;;;;;-3.16;64.24;94105.11;1734505;80;21382;-61
2021/03/08 02:21:46;;;;;;;105.05;49.38;;;;;;;-3.18;64.09;94104.70;1773201;80;21911;-61
2021/03/08 02:24:20;;;;;;;103.17;46.88;;;;;;;-3.20;64.62;94099.50;1769960;80;21135;-61
2021/03/08 02:27:03;;;;;;;100.90;47.00;;;;;;;-3.18;64.71;94097.98;1725649;82;21471;-61
2021/03/08 02:30:12;;;;;;;91.12;45.55;;;;;;;-3.10;64.90;94114.34;1749829;80;21140;-61
2021/03/08 02:32:43;;;;;;;118.45;52.15;;;;;;;-2.99;64.39;94103.64;1764798;80;21386;-61
2021/03/08 02:35:18;;;;;;;119.72;50.33;;;;;;;-3.04;63.98;94102.66;1766060;80;21561;-61
2021/03/08 02:38:01;;;;;;;98.03;45.03;;;;;;;-3.12;64.14;94105.10;1758876;80;21088;-62
2021/03/08 02:40:40;;;;;;;88.52;44.20;;;;;;;-3.10;64.39;94102.24;1757537;80;21499;-61
2021/03/08 02:43:16;;;;;;;73.55;36.05;;;;;;;-3.14;64.18;94094.73;1753351;80;21053;-61
2021/03/08 02:45:47;;;;;;;67.47;31.85;;;;;;;-3.10;64.17;94095.52;1760821;80;21347;-60
2021/03/08 02:48:15;;;;;;;85.45;36.03;;;;;;;-3.06;64.06;94098.23;1761858;80;21087;-60
2021/03/08 02:50:44;;;;;;;80.10;37.60;;;;;;;-3.00;63.73;94094.81;1710617;81;21222;-60
2021/03/08 02:53:13;;;;;;;99.20;47.85;;;;;;;-2.94;63.33;94091.95;1724134;82;21176;-59
2021/03/08 02:55:46;;;;;;;84.03;40.90;;;;;;;-2.97;63.30;94100.78;1702632;83;21184;-61
2021/03/08 02:58:14;;;;;;;;;;;;;;;-3.01;63.25;94105.94;1765272;80;21364;-60
2021/03/08 03:00:45;;;;;;;75.60;35.33;;;;;;;-3.04;63.21;94105.35;1778889;80;20490;-61
2021/03/08 03:03:14;;;;;;;78.62;34.80;;;;;;;-3.01;63.28;94104.03;1760463;80;21203;-60
2021/03/08 03:05:42;;;;;;;80.30;35.20;;;;;;;-2.91;62.91;94098.50;1757928;80;21280;-60
2021/03/08 03:08:11;;;;;;;111.10;51.33;;;;;;;-2.83;62.90;94102.16;1725286;82;21222;-61
2021/03/08 03:10:40;;;;;;;84.95;43.80;;;;;;;-2.80;62.75;94102.78;1751409;80;21375;-61
2021/03/08 03:13:08;;;;;;;97.00;44.18;;;;;;;-2.83;62.43;94096.78;1740199;82;21081;-61
2021/03/08 03:15:38;;;;;;;79.32;38.55;;;;;;;-2.88;63.10;94101.19;1752755;80;21483;-61
2021/03/08 03:18:07;;;;;;;94.92;43.80;;;;;;;-2.84;62.80;94104.66;1755418;80;21111;-61
2021/03/08 03:20:37;;;;;;;93.62;42.90;;;;;;;-2.95;62.73;94103.86;1766953;80;21136;-61
2021/03/08 03:23:06;;;;;;;88.17;46.98;;;;;;;-3.11;62.64;94104.73;1758118;80;23525;-61
2021/03/08 03:25:35;;;;;;;91.63;47.20;;;;;;;-3.30;62.91;94103.67;1764420;80;21088;-61
2021/03/08 03:28:05;;;;;;;94.28;46.53;;;;;;;-3.35;63.15;94103.25;1760529;80;21130;-61
2021/03/08 03:30:33;;;;;;;102.40;51.00;;;;;;;-3.38;63.38;94104.00;1760593;80;21285;-62
2021/03/08 03:33:03;;;;;;;101.02;49.90;;;;;;;-3.35;63.80;94100.56;1762404;80;21535;-61
2021/03/08 03:35:31;;;;;;;95.75;49.05;;;;;;;-3.29;63.71;94113.28;1764447;80;21150;-61
2021/03/08 03:37:59;;;;;;;97.15;48.58;;;;;;;-3.25;63.58;94104.66;1746559;80;21158;-60
2021/03/08 03:40:28;;;;;;;102.07;47.73;;;;;;;-3.19;63.57;94110.45;1763453;80;21068;-62
2021/03/08 03:42:56;;;;;;;98.05;46.35;;;;;;;-3.10;63.32;94114.34;1779650;80;21049;-61
2021/03/08 03:45:25;;;;;;;108.35;47.80;;;;;;;-3.13;62.77;94119.70;1735786;82;21064;-59
2021/03/08 03:47:53;;;;;;;99.13;45.65;;;;;;;-3.25;62.85;94115.41;1715540;82;21384;-62
2021/03/08 03:50:24;;;;;;;96.87;46.10;;;;;;;-3.23;62.92;94121.77;1720306;82;21140;-60
2021/03/08 03:52:52;;;;;;;96.32;45.80;;;;;;;-3.25;62.66;94111.96;1727765;83;21144;-62
2021/03/08 03:55:23;;;;;;;97.00;44.90;;;;;;;-3.31;62.58;94111.54;1727027;82;21136;-60
2021/03/08 03:58:34;;;;;;;99.67;52.25;;;;;;;-3.37;62.68;94114.95;1720514;82;21195;-62
2021/03/08 04:01:12;;;;;;;115.97;57.62;;;;;;;-3.51;63.00;94114.30;1730996;82;21217;-62
2021/03/08 04:04:17;;;;;;;97.17;51.08;;;;;;;-3.68;63.24;94118.77;1711781;82;21165;-62
2021/03/08 04:06:47;;;;;;;;;;;;;;;-3.83;63.49;94114.42;1722189;82;21491;-61
2021/03/08 04:09:19;;;;;;;102.20;48.70;;;;;;;-3.87;64.26;94119.00;1723279;82;20213;-61
2021/03/08 04:11:48;;;;;;;98.20;48.10;;;;;;;-3.79;63.97;94117.91;1735980;82;21113;-62
2021/03/08 04:14:17;;;;;;;112.62;62.83;;;;;;;-3.81;63.85;94126.35;1734609;81;22284;-62
2021/03/08 04:16:49;;;;;;;152.68;72.87;;;;;;;-3.85;64.31;94131.48;1754330;80;21017;-61
2021/03/08 04:19:24;;;;;;;268.00;114.82;;;;;;;-3.81;64.28;94126.35;1765369;80;21475;-62
2021/03/08 04:22:02;;;;;;;237.72;105.20;;;;;;;-3.77;64.43;94123.67;1779798;80;21119;-62
2021/03/08 04:24:31;;;;;;;160.22;74.92;;;;;;;-3.68;64.33;94121.45;1718400;82;21501;-61
2021/03/08 04:27:05;;;;;;;96.02;51.73;;;;;;;-3.66;64.62;94123.20;1738691;80;21337;-62
2021/03/08 04:29:38;;;;;;;79.67;42.60;;;;;;;-3.57;64.36;94127.66;1762646;80;21174;-61
2021/03/08 04:32:08;;;;;;;84.77;45.33;;;;;;;-3.59;64.23;94131.30;1755985;80;21135;-61
2021/03/08 04:34:36;;;;;;;80.15;43.33;;;;;;;-3.76;64.01;94141.33;1761735;80;21528;-63
2021/03/08 04:37:06;;;;;;;83.00;46.63;;;;;;;-3.94;64.23;94133.70;1770596;80;21083;-61
2021/03/08 04:39:37;;;;;;;73.80;40.92;;;;;;;-4.00;64.87;94135.19;1746765;80;21372;-62
2021/03/08 04:42:06;;;;;;;70.85;39.18;;;;;;;-3.98;65.06;94135.59;1765425;80;21084;-60
2021/03/08 04:44:35;;;;;;;76.07;43.17;;;;;;;-3.88;65.08;94138.36;1778908;80;21096;-61
2021/03/08 04:47:03;;;;;;;79.25;41.80;;;;;;;-3.81;65.23;94143.03;1767281;80;21143;-62
2021/03/08 04:49:33;;;;;;;69.75;35.45;;;;;;;-3.67;64.85;94130.47;1769769;80;21526;-63
2021/03/08 04:52:01;;;;;;;81.20;44.33;;;;;;;-3.63;64.77;94136.67;1765833;80;21377;-63
2021/03/08 04:54:29;;;;;;;89.20;48.45;;;;;;;-3.68;64.64;94134.89;1773232;80;21488;-64
2021/03/08 04:56:57;;;;;;;85.03;45.17;;;;;;;-3.61;65.02;94132.25;1756098;80;21083;-63
2021/03/08 04:59:26;;;;;;;96.50;51.48;;;;;;;-3.43;64.59;94141.99;1761374;80;21071;-62
2021/03/08 05:01:54;;;;;;;100.87;53.90;;;;;;;-3.38;64.42;94148.36;1777206;80;21103;-60
2021/03/08 05:04:23;;;;;;;100.60;52.45;;;;;;;-3.37;64.20;94152.03;1763497;80;22340;-62
2021/03/08 05:06:51;;;;;;;118.20;58.23;;;;;;;-3.45;64.12;94151.01;1754860;80;21167;-62
2021/03/08 05:09:20;;;;;;;111.12;54.85;;;;;;;-3.58;64.28;94155.68;1756839;80;21497;-62
2021/03/08 05:11:48;;;;;;;199.57;94.00;;;;;;;-3.57;64.50;94148.61;1765296;80;21245;-62
2021/03/08 05:14:18;;;;;;;203.42;96.90;;;;;;;-3.62;64.26;94142.80;1736499;81;21059;-62
2021/03/08 05:16:48;;;;;;;167.85;78.60;;;;;;;-3.66;64.10;94150.06;1736353;82;22279;-62
2021/03/08 05:19:16;;;;;;;194.05;95.22;;;;;;;-3.73;64.03;94153.47;1736292;82;21096;-62
2021/03/08 05:21:47;;;;;;;157.85;81.90;;;;;;;-3.84;64.49;94150.48;1730832;82;21076;-62
2021/03/08 05:24:15;;;;;;;157.22;78.85;;;;;;;-3.73;64.75;94160.18;1725839;81;21032;-63
2021/03/08 05:26:44;;;;;;;229.10;103.20;;;;;;;-3.66;64.91;94158.12;1752561;80;21138;-63
2021/03/08 05:29:12;;;;;;;194.45;98.15;;;;;;;-3.51;65.04;94157.30;1757109;80;22173;-63
2021/03/08 05:31:42;;;;;;;160.12;89.13;;;;;;;-3.30;65.10;94162.82;1729027;82;21216;-61
2021/03/08 05:34:10;;;;;;;191.03;98.78;;;;;;;-3.07;64.73;94155.28;1770430;80;21200;-62
2021/03/08 05:36:44;;;;;;;112.57;58.20;;;;;;;-2.91;64.43;94158.45;1760488;80;21456;-63
2021/03/08 05:39:12;;;;;;;116.65;65.50;;;;;;;-2.77;64.21;94158.53;1734451;81;21199;-63
2021/03/08 05:41:57;;;;;;;150.12;81.42;;;;;;;-2.83;63.99;94148.50;1753918;80;22091;-63
2021/03/08 05:44:28;;;;;;;131.35;69.72;;;;;;;-2.96;63.93;94158.81;1730183;82;21092;-62
2021/03/08 05:47:18;;;;;;;137.62;75.15;;;;;;;-3.03;63.86;94166.83;1775230;80;21072;-61
2021/03/08 05:50:29;;;;;;;133.50;72.35;;;;;;;-3.01;63.58;94159.17;1774435;80;21515;-62
2021/03/08 05:53:36;;;;;;;146.90;78.07;;;;;;;-2.93;63.63;94168.81;1771818;80;21481;-61
2021/03/08 05:56:48;;;;;;;143.70;77.87;;;;;;;-2.88;63.61;94173.83;1729564;82;23609;-61
2021/03/08 05:59:55;;;;;;;125.72;72.00;;;;;;;-2.74;63.95;94180.64;1752415;80;21093;-62
2021/03/08 06:02:53;;;;;;;123.75;68.85;;;;;;;-2.37;63.68;94172.33;1761160;80;21244;-61
2021/03/08 06:05:54;;;;;;;122.25;69.80;;;;;;;-2.11;63.16;94176.84;1728249;81;21535;-62
2021/03/08 06:09:12;;;;;;;133.50;72.85;;;;;;;-1.78;62.50;94181.92;1730722;81;21120;-62
2021/03/08 06:11:42;;;;;;;182.47;99.25;;;;;;;-1.61;62.02;94177.13;1717120;81;21390;-62
2021/03/08 06:14:10;;;;;;;230.70;115.75;;;;;;;-1.56;61.09;94184.27;1723268;82;21094;-63
2021/03/08 06:16:38;;;;;;;205.30;97.12;;;;;;;-1.71;61.17;94181.95;1729916;81;21501;-61
2021/03/08 06:19:07;;;;;;;211.92;110.52;;;;;;;-1.78;61.16;94183.86;1714589;81;21079;-62
2021/03/08 06:21:36;;;;;;;155.40;82.92;;;;;;;-1.89;61.23;94184.41;1725321;82;21067;-62
2021/03/08 06:24:05;;;;;;;166.55;90.83;;;;;;;-2.00;61.10;94185.73;1739346;81;21211;-62
2021/03/08 06:26:33;;;;;;;171.70;92.10;;;;;;;-2.09;61.39;94179.95;1725789;82;21123;-62
2021/03/08 06:29:02;;;;;;;182.37;93.00;;;;;;;-2.07;61.48;94183.59;1774334;80;21107;-63
2021/03/08 06:31:31;;;;;;;169.13;83.35;;;;;;;-2.04;61.60;94183.61;1770310;80;21194;-63
2021/03/08 06:34:00;;;;;;;201.18;100.62;;;;;;;-1.99;61.81;94184.58;1769801;80;21096;-63
2021/03/08 06:36:29;;;;;;;226.22;111.30;;;;;;;-1.87;61.73;94178.84;1775229;80;21283;-62
2021/03/08 06:38:57;;;;;;;216.20;108.32;;;;;;;-1.80;61.82;94182.89;1764305;80;21083;-62
2021/03/08 06:41:25;;;;;;;237.35;118.13;;;;;;;-1.75;61.76;94179.80;1759427;80;21471;-62
2021/03/08 06:43:54;;;;;;;235.97;116.80;;;;;;;-1.70;61.80;94178.10;1772816;80;21100;-63
2021/03/08 06:46:23;;;;;;;232.12;114.65;;;;;;;-1.62;61.81;94172.90;1719110;82;21275;-62
2021/03/08 06:48:52;;;;;;;200.80;102.80;;;;;;;-1.57;61.48;94172.51;1730782;81;22066;-62
2021/03/08 06:51:20;;;;;;;189.30;104.10;;;;;;;-1.60;61.26;94170.59;1757226;80;21083;-61
2021/03/08 06:53:49;;;;;;;250.30;141.05;;;;;;;-1.56;61.05;94160.00;1757985;80;21676;-63
2021/03/08 06:56:24;;;;;;;202.13;119.08;;;;;;;-1.51;60.95;94159.61;1720520;82;21307;-62
2021/03/08 06:59:13;;;;;;;220.20;117.87;;;;;;;-1.44;60.53;94159.63;1756483;80;21174;-62
2021/03/08 07:01:41;;;;;;;176.05;104.75;;;;;;;-1.33;60.38;94152.88;1753510;80;21207;-62
2021/03/08 07:04:19;;;;;;;151.18;82.10;;;;;;;-1.15;60.31;94163.08;1768114;80;21579;-61
2021/03/08 07:07:04;;;;;;;148.78;86.70;;;;;;;-1.01;60.16;94157.64;1752861;80;21004;-62
2021/03/08 07:09:34;;;;;;;170.22;96.28;;;;;;;-0.88;59.95;94155.52;1755997;80;21206;-61
2021/03/08 07:12:13;;;;;;;137.35;77.78;;;;;;;-0.74;59.80;94159.52;1726003;81;21575;-62
2021/03/08 07:14:43;;;;;;;154.53;83.70;;;;;;;-0.47;59.29;94163.88;1703361;83;21206;-61
2021/03/08 07:17:35;;;;;;;145.68;82.12;;;;;;;-0.21;58.23;94160.70;1701515;83;21668;-63
2021/03/08 07:20:11;;;;;;;179.53;86.47;;;;;;;0.08;57.79;94156.86;1704371;83;21141;-63
2021/03/08 07:22:48;;;;;;;189.80;93.20;;;;;;;0.19;56.90;94156.23;1697871;83;21505;-62
2021/03/08 07:25:30;;;;;;;178.70;88.97;;;;;;;0.15;56.93;94160.90;1704248;83;21521;-61
2021/03/08 07:28:06;;;;;;;141.60;78.15;;;;;;;0.25;56.79;94166.81;1706368;83;21220;-62
2021/03/08 07:30:41;;;;;;;150.35;79.42;;;;;;;0.57;56.37;94162.56;1770884;80;21080;-61
2021/03/08 07:33:14;;;;;;;148.87;81.45;;;;;;;0.87;56.17;94152.64;1767019;80;21198;-62
2021/03/08 07:35:48;;;;;;;149.25;77.42;;;;;;;1.26;55.41;94153.05;1751763;80;21152;-60
2021/03/08 07:38:32;;;;;;;108.83;59.45;;;;;;;1.63;54.52;94150.90;1762435;80;21493;-62
2021/03/08 07:41:20;;;;;;;105.75;58.48;;;;;;;1.85;53.44;94144.83;1768776;80;21301;-63
2021/03/08 07:43:55;;;;;;;97.62;53.33;;;;;;;1.84;52.85;94141.94;1762071;80;21094;-62
2021/03/08 07:46:34;;;;;;;126.50;71.53;;;;;;;1.71;52.89;94133.40;1721879;81;21118;-62
2021/03/08 07:49:05;;;;;;;122.85;74.45;;;;;;;1.71;53.26;94129.33;1748698;80;21612;-63
2021/03/08 07:51:34;;;;;;;106.75;67.42;;;;;;;1.99;53.17;94132.45;1766157;80;21116;-62
2021/03/08 07:54:07;;;;;;;113.90;68.72;;;;;;;2.30;52.52;94137.44;1766343;80;22193;-62
2021/03/08 07:56:35;;;;;;;103.45;61.92;;;;;;;2.60;51.71;94135.26;1757115;80;21083;-62
2021/03/08 07:59:03;;;;;;;105.95;62.13;;;;;;;2.81;51.07;94132.98;1760546;80;21212;-63
2021/03/08 08:01:33;;;;;;;122.92;69.82;;;;;;;2.84;50.35;94130.05;1762299;80;21079;-62
2021/03/08 08:04:02;;;;;;;121.75;70.65;;;;;;;2.76;50.50;94128.03;1751231;80;21757;-62
2021/03/08 08:06:30;;;;;;;103.60;59.93;;;;;;;2.84;50.51;94135.48;1752152;80;22165;-66
2021/03/08 08:08:58;;;;;;;104.38;56.88;;;;;;;2.94;50.24;94130.45;1750701;80;21492;-62
2021/03/08 08:11:28;;;;;;;92.05;52.10;;;;;;;3.11;49.93;94130.74;1769304;80;21067;-63
2021/03/08 08:14:00;;;;;;;123.53;67.35;;;;;;;3.15;49.21;94130.09;1728675;80;21210;-65
2021/03/08 08:16:36;;;;;;;114.70;63.13;;;;;;;3.00;49.28;94119.27;1737628;81;21493;-62
2021/03/08 08:19:09;;;;;;;125.90;69.37;;;;;;;2.89;49.43;94124.14;1761729;80;22258;-66
2021/03/08 08:21:42;;;;;;;113.37;63.10;;;;;;;2.77;49.36;94121.42;1729189;82;21139;-65
2021/03/08 08:24:17;;;;;;;119.87;68.10;;;;;;;2.82;49.56;94124.23;1770189;80;21079;-62
2021/03/08 08:26:46;;;;;;;124.75;75.22;;;;;;;2.97;49.55;94117.39;1751199;80;21080;-61
2021/03/08 08:29:15;;;;;;;124.75;72.75;;;;;;;3.07;49.56;94117.81;1729377;81;21120;-64
2021/03/08 08:31:59;;;;;;;106.17;63.52;;;;;;;3.20;49.28;94118.16;1727388;82;21503;-62
2021/03/08 08:34:43;;;;;;;126.00;72.87;;;;;;;3.29;48.95;94118.97;1733777;82;21087;-61
2021/03/08 08:37:24;;;;;;;95.60;57.62;;;;;;;3.48;49.03;94117.05;1766565;80;21175;-62
2021/03/08 08:39:57;;;;;;;104.38;62.50;;;;;;;3.78;48.11;94114.13;1783928;80;21547;-61
2021/03/08 08:42:29;;;;;;;88.92;49.00;;;;;;;3.93;47.36;94112.67;1762284;80;21080;-61
2021/03/08 08:44:58;;;;;;;81.75;48.38;;;;;;;4.13;47.00;94112.62;1718441;82;21264;-62
2021/03/08 08:47:33;;;;;;;83.05;48.28;;;;;;;4.27;46.22;94112.33;1730854;81;21088;-61
2021/03/08 08:50:05;;;;;;;82.00;47.62;;;;;;;4.42;45.98;94107.50;1689571;83;21567;-61
2021/03/08 08:52:54;;;;;;;76.45;42.43;;;;;;;4.53;45.63;94097.14;1759067;80;21110;-62
2021/03/08 08:55:39;;;;;;;70.40;39.85;;;;;;;4.60;45.09;94098.33;1765000;80;21136;-65
2021/03/08 08:58:28;;;;;;;67.78;37.50;;;;;;;4.69;45.22;94090.94;1754409;80;21985;-62
2021/03/08 09:01:16;;;;;;;71.85;40.25;;;;;;;4.86;44.25;94100.06;1756968;80;21081;-62
2021/03/08 09:04:04;;;;;;;51.90;31.80;;;;;;;5.00;43.60;94088.79;1755233;80;21152;-61
2021/03/08 09:06:55;;;;;;;56.55;33.60;;;;;;;5.13;43.14;94086.16;1754277;80;21067;-62
2021/03/08 09:09:37;;;;;;;44.35;27.98;;;;;;;5.38;43.01;94084.33;1762047;80;21457;-62
2021/03/08 09:12:09;;;;;;;35.70;22.75;;;;;;;5.65;42.14;94083.39;1739865;81;21084;-63
2021/03/08 09:14:47;;;;;;;40.67;24.35;;;;;;;5.74;41.32;94079.41;1705643;82;21113;-59
2021/03/08 09:17:21;;;;;;;31.55;21.87;;;;;;;5.80;40.83;94077.13;1705590;83;21162;-61
2021/03/08 09:20:01;;;;;;;32.45;21.07;;;;;;;5.93;40.21;94084.00;1721700;82;21066;-62
2021/03/08 09:22:33;;;;;;;31.12;20.02;;;;;;;6.15;40.48;94071.27;1762387;80;21049;-63
2021/03/08 09:25:15;;;;;;;30.45;18.20;;;;;;;6.34;39.90;94078.50;1727069;82;21428;-62
2021/03/08 09:27:50;;;;;;;26.70;19.85;;;;;;;6.56;39.23;94071.17;1729333;81;21191;-61
2021/03/08 09:30:23;;;;;;;35.10;20.95;;;;;;;6.71;39.35;94064.81;1718241;82;21128;-62
2021/03/08 09:33:06;;;;;;;19.82;15.28;;;;;;;6.87;37.87;94069.41;1692111;82;21164;-62
2021/03/08 09:35:41;;;;;;;28.80;16.85;;;;;;;7.09;37.02;94075.09;1722896;82;21623;-62
2021/03/08 09:38:12;;;;;;;16.52;13.45;;;;;;;7.36;36.24;94075.38;1762825;80;21504;-64
2021/03/08 09:40:46;;;;;;;19.15;14.68;;;;;;;7.55;35.96;94072.33;1724235;81;21191;-64
2021/03/08 09:43:33;;;;;;;22.02;19.60;;;;;;;7.84;35.58;94063.88;1716409;81;21215;-62
2021/03/08 09:46:08;;;;;;;24.25;13.43;;;;;;;8.17;35.19;94059.54;1762526;80;21091;-62
2021/03/08 09:48:43;;;;;;;26.15;14.07;;;;;;;8.66;33.75;94063.17;1760383;80;21178;-63
2021/03/08 09:51:15;;;;;;;19.30;15.35;;;;;;;9.05;33.97;94061.79;1766160;80;21365;-62
2021/03/08 09:53:46;;;;;;;16.62;13.80;;;;;;;9.53;33.32;94063.09;1775216;80;21552;-61
2021/03/08 09:56:18;;;;;;;20.30;10.85;;;;;;;10.14;31.78;94060.66;1762951;80;21104;-62
2021/03/08 09:58:47;;;;;;;20.90;11.68;;;;;;;10.54;30.75;94058.42;1751688;80;21187;-63
2021/03/08 10:01:18;;;;;;;12.88;11.43;;;;;;;10.39;31.15;94058.29;1773021;80;21286;-62
2021/03/08 10:03:48;;;;;;;12.65;11.38;;;;;;;10.06;31.12;94062.18;1774770;80;21471;-62
2021/03/08 10:06:29;;;;;;;14.30;11.68;;;;;;;9.93;31.36;94064.30;1767653;80;21092;-62
2021/03/08 10:08:58;;;;;;;20.02;14.33;;;;;;;9.78;31.09;94067.52;1748977;80;21599;-63
2021/03/08 10:11:29;;;;;;;18.23;12.93;;;;;;;9.25;31.86;94062.13;1754889;80;21072;-65
2021/03/08 10:13:59;;;;;;;14.50;12.95;;;;;;;8.81;32.91;94060.78;1759588;80;21044;-63
2021/03/08 10:16:29;;;;;;;51.00;23.98;;;;;;;8.55;32.68;94066.92;1765610;80;21606;-62
2021/03/08 10:19:09;;;;;;;46.40;22.77;;;;;;;8.22;33.19;94071.34;1763734;80;21238;-60
2021/03/08 10:21:44;;;;;;;26.82;18.42;;;;;;;7.84;33.89;94060.55;1758532;80;21112;-59
2021/03/08 10:24:12;;;;;;;18.85;15.03;;;;;;;7.51;33.33;94064.86;1738661;80;21722;-60
2021/03/08 10:26:45;;;;;;;28.05;15.10;;;;;;;7.18;34.25;94056.80;1758990;81;21143;-60
2021/03/08 10:29:14;;;;;;;22.45;16.52;;;;;;;6.99;35.42;94065.88;1760484;80;22253;-62
2021/03/08 10:31:43;;;;;;;19.42;12.80;;;;;;;6.81;36.00;94055.53;1768641;80;21564;-63
2021/03/08 10:34:11;;;;;;;17.00;12.13;;;;;;;6.70;36.26;94052.97;1675045;82;21615;-58
2021/03/08 10:36:41;;;;;;;18.92;13.60;;;;;;;6.56;36.12;94050.06;1731499;81;21195;-58
2021/03/08 10:39:12;;;;;;;14.53;13.00;;;;;;;6.54;36.22;94057.19;1701694;83;21599;-58
2021/03/08 10:41:42;;;;;;;19.73;14.90;;;;;;;6.45;35.54;94059.80;1774245;80;21388;-61
2021/03/08 10:44:19;;;;;;;33.25;19.15;;;;;;;6.39;36.03;94049.27;1760124;80;21283;-62
2021/03/08 10:46:48;;;;;;;39.92;18.05;;;;;;;6.35;36.54;94059.54;1754109;80;21521;-63
2021/03/08 10:49:17;;;;;;;23.05;14.85;;;;;;;6.33;37.68;94053.75;1751282;80;21548;-62
2021/03/08 10:51:45;;;;;;;26.40;18.05;;;;;;;6.35;37.07;94047.25;1775987;80;21173;-62
2021/03/08 10:54:14;;;;;;;31.42;21.75;;;;;;;6.42;36.82;94045.06;1762475;80;21585;-63
2021/03/08 10:56:44;;;;;;;107.22;88.22;;;;;;;6.54;36.97;94051.11;1754547;80;21156;-61
2021/03/08 10:59:28;;;;;;;35.63;28.23;;;;;;;6.69;36.06;94047.34;1719899;82;21157;-66
2021/03/08 11:02:05;;;;;;;25.23;15.00;;;;;;;6.76;36.23;94048.48;1685596;83;21107;-64
2021/03/08 11:04:34;;;;;;;24.10;16.52;;;;;;;6.82;36.15;94046.13;1763470;80;21127;-63
2021/03/08 11:07:04;;;;;;;18.00;14.15;;;;;;;6.92;36.59;94041.52;1721967;82;21584;-63
2021/03/08 11:09:37;;;;;;;19.73;13.88;;;;;;;7.02;36.06;94045.85;1760238;80;21098;-61
2021/03/08 11:12:10;;;;;;;20.00;13.85;;;;;;;7.13;35.96;94046.43;1729700;81;21120;-61
2021/03/08 11:14:53;;;;;;;18.02;14.85;;;;;;;7.15;35.20;94041.28;1734499;80;21077;-61
2021/03/08 11:17:41;;;;;;;18.77;14.85;;;;;;;7.10;35.54;94045.17;1751435;80;21067;-63
2021/03/08 11:20:16;;;;;;;27.58;22.13;;;;;;;7.06;35.19;94042.42;1766122;80;22186;-63
2021/03/08 11:22:54;;;;;;;23.12;18.98;;;;;;;7.04;34.92;94040.73;1753853;80;21124;-63
2021/03/08 11:25:42;;;;;;;33.70;25.12;;;;;;;7.08;35.53;94040.16;1765153;81;21175;-63
2021/03/08 11:28:16;;;;;;;19.07;13.70;;;;;;;7.16;35.68;94043.42;1764591;80;21088;-63
2021/03/08 11:30:50;;;;;;;20.37;13.68;;;;;;;7.16;35.48;94046.91;1760617;80;21580;-63
2021/03/08 11:33:18;;;;;;;28.32;13.58;;;;;;;7.13;35.57;94044.31;1756399;80;21365;-63
2021/03/08 11:35:51;;;;;;;16.25;13.28;;;;;;;7.03;36.36;94041.94;1752168;80;21645;-62
2021/03/08 11:38:25;;;;;;;16.77;13.68;;;;;;;6.87;35.88;94033.87;1753592;80;21088;-60
2021/03/08 11:40:55;;;;;;;25.20;14.87;;;;;;;6.67;36.52;94033.36;1764492;80;21136;-62
2021/03/08 11:43:25;;;;;;;22.07;16.32;;;;;;;6.55;37.63;94023.20;1716473;82;21195;-60
2021/03/08 11:45:55;;;;;;;28.00;18.17;;;;;;;6.49;37.66;94031.79;1766005;80;21374;-62